createdAt,value
2022-12-20T00:02:47.387Z,15.25
2022-12-20T00:05:49.786Z,13.03
2022-12-20T00:08:57.926Z,14.80
2022-12-20T00:12:00.380Z,20.10
2022-12-20T00:15:03.026Z,13.30
2022-12-20T00:18:05.668Z,13.48
2022-12-20T00:21:09.976Z,22.23
2022-12-20T00:24:13.333Z,15.00
2022-12-20T00:27:15.682Z,13.13
2022-12-20T00:30:18.127Z,13.83
2022-12-20T00:33:20.317Z,13.65
2022-12-20T00:36:24.824Z,14.68
2022-12-20T00:42:29.762Z,22.23
2022-12-20T00:45:32.085Z,24.30
2022-12-20T00:48:34.813Z,26.33
2022-12-20T00:51:37.017Z,23.42
2022-12-20T00:54:41.803Z,20.65
2022-12-20T00:57:44.184Z,24.42
2022-12-20T01:00:54.039Z,23.50
2022-12-20T01:03:58.723Z,15.07
2022-12-20T01:07:02.693Z,24.23
2022-12-20T01:10:05.437Z,24.20
2022-12-20T01:13:07.469Z,21.67
2022-12-20T01:16:22.180Z,9.77
2022-12-20T01:19:24.885Z,19.95
2022-12-20T01:22:27.426Z,12.82
2022-12-20T01:25:29.450Z,15.10
2022-12-20T01:28:32.807Z,11.63
2022-12-20T01:31:36.043Z,13.38
2022-12-20T01:34:38.826Z,21.27
2022-12-20T01:37:40.878Z,20.42
2022-12-20T01:40:42.900Z,16.37
2022-12-20T01:43:57.212Z,26.77
2022-12-20T01:47:00.529Z,12.65
2022-12-20T01:50:04.477Z,11.50
2022-12-20T01:53:06.863Z,8.80
2022-12-20T01:56:10.779Z,3.90
2022-12-20T01:59:14.174Z,3.72
2022-12-20T02:02:17.124Z,14.98
2022-12-20T02:05:21.472Z,2.95
2022-12-20T02:08:24.868Z,5.35
2022-12-20T02:12:05.128Z,5.32
2022-12-20T02:16:10.010Z,3.17
2022-12-20T02:19:33.107Z,3.75
2022-12-20T02:23:31.784Z,5.60
2022-12-20T02:27:11.096Z,13.03
2022-12-20T02:30:24.321Z,3.30
2022-12-20T02:33:28.708Z,8.00
2022-12-20T02:39:36.109Z,4.63
2022-12-20T02:42:38.342Z,7.70
2022-12-20T02:45:40.831Z,13.27
2022-12-20T02:48:43.188Z,22.77
2022-12-20T02:51:49.536Z,17.27
2022-12-20T02:54:51.740Z,20.20
2022-12-20T02:58:03.016Z,33.47
2022-12-20T03:01:14.532Z,31.92
2022-12-20T03:04:19.112Z,25.38
2022-12-20T03:07:21.701Z,24.27
2022-12-20T03:10:23.901Z,21.05
2022-12-20T03:13:26.663Z,23.65
2022-12-20T03:16:28.853Z,27.13
2022-12-20T03:19:32.460Z,25.83
2022-12-20T03:22:35.236Z,37.70
2022-12-20T03:25:38.389Z,18.58
2022-12-20T03:28:40.542Z,21.85
2022-12-20T03:31:42.702Z,21.17
2022-12-20T03:34:44.896Z,20.23
2022-12-20T03:37:47.125Z,18.98
2022-12-20T03:40:49.563Z,29.00
2022-12-20T03:43:53.028Z,28.92
2022-12-20T03:46:55.093Z,22.15
2022-12-20T03:49:57.540Z,25.85
2022-12-20T03:52:59.783Z,26.83
2022-12-20T03:56:01.975Z,30.35
2022-12-20T03:59:04.566Z,31.45
2022-12-20T04:02:06.715Z,49.85
2022-12-20T04:05:11.375Z,35.03
2022-12-20T04:11:18.578Z,44.25
2022-12-20T04:14:20.780Z,35.78
2022-12-20T04:17:22.885Z,31.55
2022-12-20T04:20:25.161Z,40.10
2022-12-20T04:23:27.450Z,35.70
2022-12-20T04:26:29.902Z,32.15
2022-12-20T04:29:32.638Z,28.08
2022-12-20T04:32:34.717Z,29.05
2022-12-20T04:35:37.988Z,38.35
2022-12-20T04:38:40.377Z,23.33
2022-12-20T04:41:43.215Z,31.42
2022-12-20T04:44:45.338Z,28.17
2022-12-20T04:47:47.590Z,27.27
2022-12-20T04:50:51.172Z,28.80
2022-12-20T04:53:54.087Z,32.35
2022-12-20T04:56:57.282Z,28.20
2022-12-20T04:59:59.465Z,42.85
2022-12-20T05:03:01.960Z,31.13
2022-12-20T05:06:04.792Z,30.95
2022-12-20T05:09:07.003Z,24.67
2022-12-20T05:12:09.201Z,31.85
2022-12-20T05:15:20.359Z,39.45
2022-12-20T05:18:27.243Z,32.63
2022-12-20T05:21:47.827Z,29.30
2022-12-20T05:25:08.519Z,29.55
2022-12-20T05:28:10.927Z,34.50
2022-12-20T05:31:15.596Z,28.33
2022-12-20T05:34:18.069Z,36.83
2022-12-20T05:37:21.950Z,34.22
2022-12-20T05:40:24.422Z,47.30
2022-12-20T05:43:26.844Z,35.85
2022-12-20T05:46:30.481Z,32.58
2022-12-20T05:49:32.767Z,27.50
2022-12-20T05:52:34.787Z,34.70
2022-12-20T05:55:37.136Z,41.55
2022-12-20T05:58:40.885Z,37.40
2022-12-20T06:01:43.044Z,33.00
2022-12-20T06:04:45.348Z,47.72
2022-12-20T06:07:50.702Z,37.60
2022-12-20T06:10:53.566Z,32.03
2022-12-20T06:13:56.690Z,28.73
2022-12-20T06:16:58.963Z,35.15
2022-12-20T06:20:01.098Z,34.10
2022-12-20T06:23:04.363Z,27.35
2022-12-20T06:26:09.340Z,30.13
2022-12-20T06:29:14.310Z,34.83
2022-12-20T06:32:16.646Z,29.70
2022-12-20T06:35:18.755Z,40.10
2022-12-20T06:38:20.869Z,32.53
2022-12-20T06:41:23.074Z,26.90
2022-12-20T06:44:25.218Z,33.60
2022-12-20T06:47:27.497Z,26.02
2022-12-20T06:50:29.700Z,29.05
2022-12-20T06:53:31.767Z,37.30
2022-12-20T06:56:40.876Z,23.95
2022-12-20T06:59:43.774Z,34.22
2022-12-20T07:02:46.119Z,36.85
2022-12-20T07:05:53.503Z,26.80
2022-12-20T07:08:56.373Z,24.15
2022-12-20T07:11:58.835Z,45.38
2022-12-20T07:15:01.154Z,33.72
2022-12-20T07:18:04.105Z,41.80
2022-12-20T07:21:06.942Z,37.28
2022-12-20T07:24:09.693Z,30.75
2022-12-20T07:27:12.039Z,30.95
2022-12-20T07:30:18.456Z,39.03
2022-12-20T07:33:20.598Z,39.88
2022-12-20T07:36:23.084Z,30.07
2022-12-20T07:39:25.902Z,27.50
2022-12-20T07:42:35.827Z,25.98
2022-12-20T07:45:40.543Z,17.90
2022-12-20T07:48:44.752Z,12.00
2022-12-20T07:51:51.571Z,10.30
2022-12-20T07:55:00.770Z,13.25
2022-12-20T07:58:06.951Z,10.00
2022-12-20T08:01:11.288Z,9.55
2022-12-20T08:07:22.934Z,3.40
2022-12-20T08:10:26.334Z,5.73
2022-12-20T08:13:28.570Z,2.30
2022-12-20T08:16:31.327Z,3.50
2022-12-20T08:19:33.724Z,2.38
2022-12-20T08:22:36.138Z,2.88
2022-12-20T08:25:41.798Z,6.13
2022-12-20T08:28:44.968Z,17.60
2022-12-20T08:31:50.337Z,14.93
2022-12-20T08:34:53.751Z,18.42
2022-12-20T08:37:56.979Z,23.70
2022-12-20T08:41:08.389Z,28.40
2022-12-20T08:44:10.955Z,35.90
2022-12-20T08:47:13.326Z,26.27
2022-12-20T08:50:15.569Z,42.08
2022-12-20T08:53:17.898Z,48.67
2022-12-20T08:56:20.306Z,29.63
2022-12-20T08:59:22.607Z,38.72
2022-12-20T09:02:24.876Z,31.45
2022-12-20T09:05:27.469Z,40.72
2022-12-20T09:08:29.750Z,31.73
2022-12-20T09:11:31.883Z,30.48
2022-12-20T09:14:34.104Z,27.17
2022-12-20T09:17:36.136Z,34.88
2022-12-20T09:20:44.509Z,21.67
2022-12-20T09:23:54.620Z,21.52
2022-12-20T09:26:56.671Z,25.60
2022-12-20T09:29:59.056Z,33.50
2022-12-20T09:33:10.551Z,24.50
2022-12-20T09:36:14.966Z,30.15
2022-12-20T09:39:17.213Z,25.15
2022-12-20T09:42:24.656Z,38.20
2022-12-20T09:45:29.807Z,21.30
2022-12-20T09:48:38.788Z,22.50
2022-12-20T09:52:00.415Z,29.02
2022-12-20T09:55:28.131Z,36.67
2022-12-20T09:58:39.324Z,41.28
2022-12-20T10:01:46.268Z,32.92
2022-12-20T10:04:48.813Z,28.40
2022-12-20T10:08:06.101Z,27.08
2022-12-20T10:11:21.362Z,25.77
2022-12-20T10:14:35.591Z,30.30
2022-12-20T10:18:14.226Z,24.27
2022-12-20T10:21:47.622Z,23.30
2022-12-20T10:25:12.837Z,29.95
2022-12-20T10:28:17.125Z,28.60
2022-12-20T10:31:21.988Z,23.20
2022-12-20T10:34:24.108Z,24.80
2022-12-20T10:37:26.437Z,21.58
2022-12-20T10:41:10.113Z,25.25
2022-12-20T10:44:18.387Z,30.40
2022-12-20T10:47:40.713Z,25.13
2022-12-20T10:50:43.063Z,31.35
2022-12-20T10:53:59.057Z,26.77
2022-12-20T10:57:21.296Z,27.83
2022-12-20T11:00:33.724Z,29.67
2022-12-20T11:04:02.658Z,27.92
2022-12-20T11:07:25.957Z,34.10
2022-12-20T11:10:30.093Z,33.25
2022-12-20T11:13:32.208Z,30.25
2022-12-20T11:16:38.181Z,24.42
2022-12-20T11:20:17.966Z,25.08
2022-12-20T11:23:42.000Z,20.98
2022-12-20T11:27:02.309Z,27.23
2022-12-20T11:30:40.611Z,19.08
2022-12-20T11:33:48.728Z,20.73
2022-12-20T11:36:50.680Z,26.92
2022-12-20T11:40:20.111Z,26.45
2022-12-20T11:44:07.989Z,24.80
2022-12-20T11:47:23.740Z,20.25
2022-12-20T11:50:40.261Z,12.52
2022-12-20T11:54:00.549Z,29.10
2022-12-20T11:57:14.377Z,22.27
2022-12-20T12:00:25.474Z,20.30
2022-12-20T12:03:35.681Z,18.33
2022-12-20T12:06:53.631Z,32.30
2022-12-20T12:09:58.694Z,23.55
2022-12-20T12:13:11.333Z,30.10
2022-12-20T12:16:27.950Z,20.05
2022-12-20T12:19:31.372Z,23.38
2022-12-20T12:22:36.082Z,19.42
2022-12-20T12:25:38.179Z,12.90
2022-12-20T12:28:40.551Z,23.02
2022-12-20T12:31:54.389Z,19.00
2022-12-20T12:35:32.057Z,20.60
2022-12-20T12:39:12.122Z,19.52
2022-12-20T12:42:48.009Z,21.35
2022-12-20T12:45:59.748Z,16.00
2022-12-20T12:49:16.448Z,23.35
2022-12-20T12:52:55.534Z,12.18
2022-12-20T12:56:19.420Z,13.93
2022-12-20T12:59:20.261Z,17.65
2022-12-20T13:02:33.359Z,26.88
2022-12-20T13:05:36.302Z,13.68
2022-12-20T13:09:01.247Z,18.98
2022-12-20T13:15:25.276Z,19.98
2022-12-20T13:18:28.164Z,14.13
2022-12-20T13:21:36.860Z,16.75
2022-12-20T13:24:48.787Z,24.13
2022-12-20T13:27:52.667Z,7.22
2022-12-20T13:31:04.782Z,7.57
2022-12-20T13:34:52.724Z,11.02
2022-12-20T13:38:02.375Z,6.45
2022-12-20T13:41:18.175Z,10.45
2022-12-20T13:44:47.630Z,12.05
2022-12-20T13:48:10.802Z,9.70
2022-12-20T13:51:22.352Z,10.57
2022-12-20T13:54:27.293Z,8.82
2022-12-20T13:57:31.447Z,12.68
2022-12-20T14:00:35.712Z,9.30
2022-12-20T14:03:48.130Z,12.30
2022-12-20T14:06:58.295Z,10.50
2022-12-20T14:10:02.147Z,9.93
2022-12-20T14:13:17.995Z,9.07
2022-12-20T14:16:20.959Z,5.57
2022-12-20T14:19:23.124Z,9.30
2022-12-20T14:22:25.391Z,18.35
2022-12-20T14:25:37.253Z,9.82
2022-12-20T14:28:46.714Z,8.57
2022-12-20T14:31:49.206Z,15.15
2022-12-20T14:34:53.389Z,12.93
2022-12-20T14:38:04.981Z,12.25
2022-12-20T14:41:30.305Z,8.38
2022-12-20T14:44:33.001Z,11.13
2022-12-20T14:47:36.606Z,8.00
2022-12-20T14:50:43.054Z,8.77
2022-12-20T14:53:47.644Z,12.57
2022-12-20T14:56:52.047Z,18.27
2022-12-20T15:03:19.982Z,5.35
2022-12-20T15:06:49.511Z,11.73
2022-12-20T15:09:51.594Z,8.48
2022-12-20T15:12:53.798Z,11.70
2022-12-20T15:15:56.083Z,16.92
2022-12-20T15:19:01.825Z,11.93
2022-12-20T15:22:04.132Z,9.52
2022-12-20T15:25:16.550Z,9.90
2022-12-20T15:28:22.349Z,18.40
2022-12-20T15:31:32.944Z,8.10
2022-12-20T15:34:37.990Z,19.13
2022-12-20T15:37:41.914Z,13.45
2022-12-20T15:40:46.167Z,6.55
2022-12-20T15:43:50.420Z,10.95
2022-12-20T15:46:55.072Z,14.93
2022-12-20T15:49:57.380Z,12.95
2022-12-20T15:52:59.587Z,20.90
2022-12-20T15:56:01.758Z,16.25
2022-12-20T15:59:24.363Z,14.70
2022-12-20T16:02:29.033Z,18.63
2022-12-20T16:05:31.475Z,15.77
2022-12-20T16:08:34.957Z,16.88
2022-12-20T16:11:37.239Z,15.27
2022-12-20T16:14:39.590Z,10.10
2022-12-20T16:17:42.559Z,13.18
2022-12-20T16:20:45.038Z,10.90
2022-12-20T16:23:47.509Z,21.23
2022-12-20T16:26:49.907Z,8.65
2022-12-20T16:29:52.051Z,7.38
2022-12-20T16:32:54.797Z,10.07
2022-12-20T16:35:57.025Z,23.17
2022-12-20T16:39:00.281Z,10.55
2022-12-20T16:42:02.423Z,18.33
2022-12-20T16:45:04.698Z,10.70
2022-12-20T16:48:06.990Z,9.85
2022-12-20T16:51:29.520Z,8.70
2022-12-20T16:54:32.254Z,18.02
2022-12-20T16:57:34.420Z,12.32
2022-12-20T17:00:37.500Z,19.98
2022-12-20T17:03:39.891Z,12.57
2022-12-20T17:06:43.114Z,11.52
2022-12-20T17:09:46.390Z,14.77
2022-12-20T17:12:49.076Z,17.83
2022-12-20T17:15:51.505Z,21.02
2022-12-20T17:18:55.804Z,16.10
2022-12-20T17:25:19.834Z,10.57
2022-12-20T17:28:22.182Z,36.20
2022-12-20T17:31:28.480Z,26.52
2022-12-20T17:34:31.629Z,21.50
2022-12-20T17:37:33.931Z,18.20
2022-12-20T17:40:36.459Z,27.02
2022-12-20T17:43:39.426Z,25.60
2022-12-20T17:46:42.436Z,20.67
2022-12-20T17:49:44.959Z,21.33
2022-12-20T17:52:47.680Z,21.27
2022-12-20T17:55:51.340Z,17.45
2022-12-20T17:58:54.711Z,19.70
2022-12-20T18:01:57.502Z,23.47
2022-12-20T18:04:59.844Z,12.43
2022-12-20T18:08:02.140Z,20.05
2022-12-20T18:11:04.250Z,28.95
2022-12-20T18:14:06.379Z,23.35
2022-12-20T18:17:08.585Z,13.38
2022-12-20T18:20:11.716Z,19.50
2022-12-20T18:23:14.107Z,13.82
2022-12-20T18:26:23.754Z,28.30
2022-12-20T18:29:26.167Z,21.80
2022-12-20T18:32:31.343Z,25.08
2022-12-20T18:35:33.799Z,29.70
2022-12-20T18:38:39.162Z,37.22
2022-12-20T18:41:43.114Z,19.25
2022-12-20T18:44:45.612Z,21.67
2022-12-20T18:47:47.811Z,26.10
2022-12-20T18:50:49.828Z,31.08
2022-12-20T18:53:55.341Z,25.20
2022-12-20T18:57:00.286Z,45.70
2022-12-20T19:00:05.767Z,40.40
2022-12-20T19:03:08.759Z,21.30
2022-12-20T19:06:11.637Z,23.88
2022-12-20T19:09:14.346Z,25.23
2022-12-20T19:12:16.502Z,23.38
2022-12-20T19:15:18.959Z,33.35
2022-12-20T19:18:21.153Z,21.10
2022-12-20T19:21:27.953Z,18.70
2022-12-20T19:24:30.138Z,23.25
2022-12-20T19:27:32.253Z,26.33
2022-12-20T19:30:35.975Z,18.02
2022-12-20T19:33:39.762Z,28.38
2022-12-20T19:36:46.510Z,12.87
2022-12-20T19:39:48.658Z,20.48
2022-12-20T19:42:51.616Z,29.65
2022-12-20T19:45:53.927Z,33.00
2022-12-20T19:48:57.601Z,21.02
2022-12-20T19:51:59.779Z,27.47
2022-12-20T19:55:02.027Z,21.95
2022-12-20T19:58:05.047Z,13.55
2022-12-20T20:01:08.951Z,23.70
2022-12-20T20:04:11.413Z,26.90
2022-12-20T20:07:13.797Z,22.10
2022-12-20T20:10:15.948Z,25.88
2022-12-20T20:13:18.090Z,22.05
2022-12-20T20:16:22.800Z,24.65
2022-12-20T20:19:25.179Z,19.10
2022-12-20T20:22:27.330Z,25.58
2022-12-20T20:25:29.423Z,16.48
2022-12-20T20:28:33.264Z,25.77
2022-12-20T20:31:38.610Z,30.80
2022-12-20T20:34:40.761Z,30.95
2022-12-20T20:37:42.928Z,30.08
2022-12-20T20:40:46.368Z,27.48
2022-12-20T20:43:49.350Z,25.30
2022-12-20T20:46:51.458Z,31.70
2022-12-20T20:49:53.757Z,26.13
2022-12-20T20:52:55.821Z,43.55
2022-12-20T20:55:58.019Z,28.08
2022-12-20T20:59:05.968Z,29.77
2022-12-20T21:02:14.418Z,22.57
2022-12-20T21:06:06.275Z,32.47
2022-12-20T21:08:40.082Z,24.05
2022-12-20T21:11:42.550Z,25.70
2022-12-20T21:15:20.869Z,42.58
2022-12-20T21:18:07.035Z,33.17
2022-12-20T21:21:11.232Z,35.45
2022-12-20T21:24:14.268Z,42.65
2022-12-20T21:27:16.794Z,39.10
2022-12-20T21:30:19.364Z,46.70
2022-12-20T21:33:22.479Z,34.95
2022-12-20T21:36:26.242Z,45.90
2022-12-20T21:39:28.366Z,43.30
2022-12-20T21:42:31.929Z,53.15
2022-12-20T21:45:34.483Z,45.73
2022-12-20T21:48:36.844Z,39.55
2022-12-20T21:51:38.888Z,25.13
2022-12-20T21:54:41.207Z,40.13
2022-12-20T21:57:44.223Z,17.90
2022-12-20T22:00:52.491Z,19.73
2022-12-20T22:04:02.947Z,27.77
2022-12-20T22:07:05.187Z,30.35
2022-12-20T22:10:08.219Z,23.40
2022-12-20T22:13:11.529Z,18.30
2022-12-20T22:16:21.195Z,21.88
2022-12-20T22:19:24.623Z,18.40
2022-12-20T22:22:27.015Z,21.90
2022-12-20T22:25:29.238Z,27.90
2022-12-20T22:28:31.586Z,33.05
2022-12-20T22:32:03.079Z,36.90
2022-12-20T22:35:05.913Z,27.67
2022-12-20T22:38:08.479Z,27.92
2022-12-20T22:41:14.705Z,32.75
2022-12-20T22:44:20.003Z,30.75
2022-12-20T22:47:22.057Z,26.77
2022-12-20T22:50:24.320Z,23.13
2022-12-20T22:53:26.804Z,28.73
2022-12-20T22:56:28.967Z,29.65
2022-12-20T22:59:33.684Z,25.92
2022-12-20T23:05:53.248Z,28.70
2022-12-20T23:08:56.779Z,29.40
2022-12-20T23:12:17.574Z,28.85
2022-12-20T23:15:38.203Z,16.38
2022-12-20T23:18:40.461Z,16.38
2022-12-20T23:22:01.047Z,16.70
2022-12-20T23:25:04.563Z,31.55
2022-12-20T23:28:06.602Z,37.50
2022-12-20T23:31:09.974Z,23.85
2022-12-20T23:34:12.185Z,37.53
2022-12-20T23:37:14.679Z,22.10
2022-12-20T23:40:17.589Z,22.40
2022-12-20T23:43:19.921Z,29.42
2022-12-20T23:46:22.620Z,19.55
2022-12-20T23:49:24.903Z,20.83
2022-12-20T23:52:27.056Z,22.73
2022-12-20T23:55:29.387Z,20.37
2022-12-20T23:58:32.291Z,25.00
